Time;durP1;ratioP1;P1;durP2;ratioP2;P2;SDS_P1;SDS_P2;PMS_P1;PMS_P2;Temp;Humidity;BMP_temperature;BMP_pressure;BME280_temperature;BME280_humidity;BME280_pressure;Samples;Min_cycle;Max_cycle;Signal;HPM_P1;HPM_P2
2022/10/06 00:01:38;;;;;;;16.67;7.65;;;;;;;9.81;100.00;99798.62;4423695;32;20541;-77
2022/10/06 00:04:05;;;;;;;14.93;7.00;;;;;;;9.76;100.00;99798.94;4423714;32;20155;-77
2022/10/06 00:06:32;;;;;;;15.35;7.62;;;;;;;9.71;100.00;99794.97;4423516;32;20085;-77
2022/10/06 00:08:59;;;;;;;17.92;7.47;;;;;;;9.66;100.00;99797.91;4423578;32;20914;-77
2022/10/06 00:11:27;;;;;;;15.98;7.28;;;;;;;9.61;100.00;99789.53;4423603;32;20125;-77
2022/10/06 00:13:54;;;;;;;17.02;7.40;;;;;;;9.59;100.00;99791.41;4423643;32;20102;-77
2022/10/06 00:16:22;;;;;;;16.48;7.53;;;;;;;9.55;100.00;99790.81;4423587;32;20450;-77
2022/10/06 00:18:49;;;;;;;16.33;7.70;;;;;;;9.52;100.00;99791.00;4423330;32;20172;-78
2022/10/06 00:21:17;;;;;;;18.33;7.87;;;;;;;9.51;100.00;99783.28;4423596;32;20535;-77
2022/10/06 00:23:44;;;;;;;13.23;7.47;;;;;;;9.47;100.00;99787.03;4423617;32;20576;-77
2022/10/06 00:26:15;;;;;;;19.73;7.68;;;;;;;9.54;100.00;99783.06;4423520;32;20162;-77
2022/10/06 00:28:45;;;;;;;17.65;7.37;;;;;;;9.47;100.00;99784.41;4423495;32;20090;-77
2022/10/06 00:31:14;;;;;;;14.40;7.57;;;;;;;9.39;100.00;99775.31;4423611;32;20097;-78
2022/10/06 00:33:42;;;;;;;14.30;6.97;;;;;;;9.35;100.00;99779.06;4423471;32;20576;-78
2022/10/06 00:36:09;;;;;;;22.75;8.13;;;;;;;9.31;100.00;99777.63;4423342;32;20109;-78
2022/10/06 00:38:36;;;;;;;14.32;7.50;;;;;;;9.31;100.00;99771.53;4423365;32;20120;-78
2022/10/06 00:41:03;;;;;;;13.98;6.62;;;;;;;9.28;100.00;99770.00;4423463;32;20098;-78
2022/10/06 00:43:46;;;;;;;17.58;8.10;;;;;;;9.24;100.00;99773.75;4423348;32;20140;-78
2022/10/06 00:46:43;;;;;;;16.95;8.15;;;;;;;9.18;100.00;99776.78;4423356;32;20617;-77
2022/10/06 00:49:27;;;;;;;18.80;8.00;;;;;;;9.28;100.00;99774.34;4423214;32;20542;-77
2022/10/06 00:51:59;;;;;;;18.67;7.15;;;;;;;9.40;100.00;99781.38;4409898;32;20162;-77
2022/10/06 00:54:27;;;;;;;15.90;7.10;;;;;;;9.33;100.00;99773.13;4409632;32;20089;-77
2022/10/06 00:56:54;;;;;;;19.45;7.37;;;;;;;9.26;100.00;99774.47;4409462;32;20105;-77
2022/10/06 00:59:21;;;;;;;18.23;8.48;;;;;;;9.43;100.00;99772.47;4409399;32;20132;-77
2022/10/06 01:01:54;;;;;;;14.57;6.78;;;;;;;9.33;100.00;99770.50;4423224;32;20119;-77
2022/10/06 01:04:23;;;;;;;12.25;6.60;;;;;;;9.29;100.00;99769.03;4410149;32;20139;-77
2022/10/06 01:06:54;;;;;;;17.20;7.12;;;;;;;9.22;100.00;99775.62;4423045;32;20129;-77
2022/10/06 01:09:22;;;;;;;15.23;7.60;;;;;;;9.12;100.00;99766.72;4421655;32;20125;-77
2022/10/06 01:11:52;;;;;;;10.63;6.87;;;;;;;9.02;100.00;99774.34;4421596;32;20544;-77
2022/10/06 01:14:21;;;;;;;17.23;7.25;;;;;;;8.86;100.00;99772.75;4421938;32;20519;-77
2022/10/06 01:16:53;;;;;;;15.15;7.75;;;;;;;8.82;100.00;99770.44;4421930;32;20536;-77
2022/10/06 01:19:39;;;;;;;12.77;6.22;;;;;;;8.78;100.00;99763.72;4422005;32;20197;-77
2022/10/06 01:22:07;;;;;;;15.85;7.15;;;;;;;8.68;100.00;99769.56;4423264;32;20487;-78
2022/10/06 01:24:35;;;;;;;13.73;7.30;;;;;;;8.65;100.00;99777.59;4421977;32;20128;-77
2022/10/06 01:27:03;;;;;;;18.15;6.97;;;;;;;8.58;100.00;99778.94;4412481;32;20082;-77
2022/10/06 01:29:32;;;;;;;12.13;6.87;;;;;;;8.49;100.00;99776.91;4406805;32;20106;-77
2022/10/06 01:31:59;;;;;;;13.05;6.95;;;;;;;8.36;100.00;99784.69;4406649;32;20128;-77
2022/10/06 01:34:27;;;;;;;11.73;6.30;;;;;;;8.27;100.00;99777.44;4407948;32;20121;-77
2022/10/06 01:36:54;;;;;;;13.80;7.35;;;;;;;8.17;100.00;99778.03;4407656;32;20403;-77
2022/10/06 01:39:21;;;;;;;14.80;7.43;;;;;;;8.10;100.00;99773.25;4408281;32;20121;-77
2022/10/06 01:41:49;;;;;;;16.23;7.57;;;;;;;8.01;100.00;99774.69;4407813;32;20167;-77
2022/10/06 01:44:16;;;;;;;13.82;7.50;;;;;;;7.99;100.00;99776.53;4408022;32;20109;-77
2022/10/06 01:46:43;;;;;;;13.80;7.62;;;;;;;7.88;100.00;99777.22;4407812;32;20114;-77
2022/10/06 01:49:11;;;;;;;17.98;7.65;;;;;;;7.74;100.00;99782.47;4407685;32;20898;-77
2022/10/06 01:51:38;;;;;;;17.15;7.95;;;;;;;7.73;100.00;99781.59;4407848;32;20089;-77
2022/10/06 01:54:05;;;;;;;16.92;7.87;;;;;;;7.68;100.00;99780.22;4407696;32;20116;-77
2022/10/06 01:56:32;;;;;;;17.40;8.40;;;;;;;7.63;100.00;99785.69;4408011;32;20133;-76
2022/10/06 01:59:00;;;;;;;14.90;7.70;;;;;;;7.56;100.00;99784.41;4407863;32;20121;-77
2022/10/06 02:01:27;;;;;;;17.02;7.53;;;;;;;7.57;100.00;99784.31;4407718;32;20109;-77
2022/10/06 02:03:54;;;;;;;20.95;8.80;;;;;;;7.51;100.00;99787.28;4407545;32;20486;-77
2022/10/06 02:06:21;;;;;;;22.58;8.85;;;;;;;7.49;100.00;99786.53;4407928;32;20513;-76
2022/10/06 02:08:49;;;;;;;29.15;10.13;;;;;;;7.43;100.00;99781.69;4422626;32;20089;-77
2022/10/06 02:11:18;;;;;;;22.10;9.63;;;;;;;7.38;100.00;99787.19;4422937;32;20159;-77
2022/10/06 02:13:46;;;;;;;26.55;9.52;;;;;;;7.39;100.00;99790.66;4422966;32;20090;-77
2022/10/06 02:16:13;;;;;;;16.87;8.75;;;;;;;7.36;100.00;99785.59;4422782;32;20531;-77
2022/10/06 02:18:41;;;;;;;21.92;10.23;;;;;;;7.38;100.00;99787.19;4422693;32;20098;-77
2022/10/06 02:21:14;;;;;;;20.58;9.65;;;;;;;7.40;100.00;99787.94;4422355;32;20101;-77
2022/10/06 02:23:41;;;;;;;19.87;10.10;;;;;;;7.41;100.00;99791.38;4422761;32;20121;-77
2022/10/06 02:26:08;;;;;;;22.70;9.27;;;;;;;7.43;100.00;99794.72;4422782;32;20097;-77
2022/10/06 02:28:36;;;;;;;15.90;7.70;;;;;;;7.44;100.00;99796.41;4422573;32;20521;-77
2022/10/06 02:31:06;;;;;;;19.12;8.57;;;;;;;7.41;100.00;99791.38;4422734;32;20109;-77
2022/10/06 02:33:35;;;;;;;20.10;8.82;;;;;;;7.40;100.00;99795.75;4422937;32;20093;-77
2022/10/06 02:36:04;;;;;;;21.02;9.48;;;;;;;7.38;100.00;99795.00;4423066;32;20116;-77
2022/10/06 02:38:32;;;;;;;15.40;8.68;;;;;;;7.39;100.00;99795.84;4422265;32;20155;-77
2022/10/06 02:41:00;;;;;;;21.12;8.55;;;;;;;7.39;100.00;99795.84;4422929;32;20105;-77
2022/10/06 02:43:28;;;;;;;17.95;8.68;;;;;;;7.39;100.00;99794.06;4422552;32;20093;-77
2022/10/06 02:45:59;;;;;;;23.38;9.23;;;;;;;7.37;100.00;99793.31;4422755;32;20102;-77
2022/10/06 02:48:27;;;;;;;22.52;8.35;;;;;;;7.38;100.00;99796.78;4422322;32;20097;-77
2022/10/06 02:51:01;;;;;;;15.07;7.57;;;;;;;7.36;100.00;99794.25;4422402;32;20105;-77
2022/10/06 02:53:28;;;;;;;24.70;7.60;;;;;;;7.38;100.00;99791.56;4422764;32;20120;-77
2022/10/06 02:55:59;;;;;;;19.42;8.85;;;;;;;7.37;100.00;99798.53;4422277;32;20116;-77
2022/10/06 02:58:30;;;;;;;18.70;8.90;;;;;;;7.42;100.00;99787.84;4422534;32;20120;-77
2022/10/06 03:01:05;;;;;;;21.37;7.72;;;;;;;7.41;100.00;99794.81;4422592;32;20116;-77
2022/10/06 03:03:34;;;;;;;14.68;7.43;;;;;;;7.45;100.00;99798.09;4422581;32;20093;-77
2022/10/06 03:06:20;;;;;;;17.77;7.82;;;;;;;7.51;100.00;99799.47;4422047;32;20112;-77
2022/10/06 03:08:56;;;;;;;18.23;8.05;;;;;;;7.51;100.00;99802.09;4407203;32;20121;-77
2022/10/06 03:11:26;;;;;;;20.73;8.15;;;;;;;7.46;100.00;99792.78;4407177;32;20098;-77
2022/10/06 03:13:53;;;;;;;18.58;8.25;;;;;;;7.45;100.00;99798.09;4406904;32;20430;-77
2022/10/06 03:16:38;;;;;;;14.43;7.45;;;;;;;7.45;100.00;99798.09;4406787;32;20115;-77
2022/10/06 03:19:07;;;;;;;20.08;7.25;;;;;;;7.45;100.00;99803.31;4406921;32;20090;-77
2022/10/06 03:21:37;;;;;;;21.25;8.07;;;;;;;7.48;100.00;99808.34;4406977;32;20116;-77
2022/10/06 03:24:04;;;;;;;18.40;7.82;;;;;;;7.42;100.00;99806.09;4406769;32;20149;-77
2022/10/06 03:26:34;;;;;;;15.68;7.57;;;;;;;7.43;100.00;99812.97;4406669;32;20097;-77
2022/10/06 03:29:02;;;;;;;19.00;7.15;;;;;;;7.44;100.00;99804.22;4406544;32;20098;-77
2022/10/06 03:31:38;;;;;;;16.23;7.60;;;;;;;7.37;100.00;99800.31;4406800;32;20082;-77
2022/10/06 03:34:06;;;;;;;16.05;7.87;;;;;;;7.35;100.00;99813.44;4407911;32;20102;-77
2022/10/06 03:36:33;;;;;;;14.18;8.15;;;;;;;7.37;100.00;99805.50;4408567;32;20473;-77
2022/10/06 03:39:02;;;;;;;15.45;7.85;;;;;;;7.36;100.00;99807.28;4408462;32;20165;-77
2022/10/06 03:41:31;;;;;;;18.83;8.70;;;;;;;7.32;100.00;99807.56;4408528;32;20150;-77
2022/10/06 03:43:59;;;;;;;17.52;8.13;;;;;;;7.36;100.00;99809.91;4408523;32;20098;-77
2022/10/06 03:46:28;;;;;;;16.98;7.65;;;;;;;7.35;100.00;99804.78;4408709;32;20102;-77
2022/10/06 03:48:57;;;;;;;15.10;8.43;;;;;;;7.36;100.00;99804.69;4408646;32;20089;-77
2022/10/06 03:51:28;;;;;;;15.18;7.62;;;;;;;7.34;100.00;99803.09;4408505;32;20464;-77
2022/10/06 03:53:57;;;;;;;22.87;8.23;;;;;;;7.33;100.00;99804.88;4408798;32;20145;-77
2022/10/06 03:56:35;;;;;;;18.37;7.68;;;;;;;7.30;100.00;99799.84;4408633;32;20108;-77
2022/10/06 03:59:09;;;;;;;18.77;8.50;;;;;;;7.35;100.00;99808.22;4408928;32;20117;-77
2022/10/06 04:01:45;;;;;;;16.20;8.00;;;;;;;7.32;100.00;99803.19;4408817;32;20455;-77
2022/10/06 04:04:13;;;;;;;20.42;8.13;;;;;;;7.29;100.00;99804.19;4408761;32;20090;-77
2022/10/06 04:06:42;;;;;;;17.50;8.75;;;;;;;7.29;100.00;99814.62;4408400;32;20133;-77
2022/10/06 04:09:11;;;;;;;21.45;9.48;;;;;;;7.26;100.00;99817.41;4408473;32;20499;-78
2022/10/06 04:11:43;;;;;;;17.73;9.65;;;;;;;7.29;100.00;99812.00;4408737;32;20904;-77
2022/10/06 04:14:13;;;;;;;20.05;9.55;;;;;;;7.29;100.00;99812.00;4408613;32;20159;-77
2022/10/06 04:16:43;;;;;;;17.58;8.40;;;;;;;7.27;100.00;99813.88;4408579;32;20185;-75
2022/10/06 04:19:13;;;;;;;18.10;7.85;;;;;;;7.28;100.00;99823.41;4408520;32;20505;-77
2022/10/06 04:21:42;;;;;;;17.45;9.02;;;;;;;7.26;100.00;99819.19;4408334;32;20493;-77
2022/10/06 04:24:10;;;;;;;17.73;9.50;;;;;;;7.31;100.00;99822.34;4408564;32;20179;-76
2022/10/06 04:26:43;;;;;;;18.90;9.25;;;;;;;7.31;100.00;99818.91;4415533;32;20090;-77
2022/10/06 04:29:11;;;;;;;16.92;8.80;;;;;;;7.22;100.00;99812.47;4423461;32;20569;-77
2022/10/06 04:31:39;;;;;;;17.83;9.38;;;;;;;7.21;100.00;99821.22;4421732;32;20101;-76
2022/10/06 04:34:09;;;;;;;21.00;11.05;;;;;;;7.24;100.00;99821.88;4421882;32;20159;-77
2022/10/06 04:36:39;;;;;;;34.88;15.23;;;;;;;7.26;100.00;99820.00;4423399;32;20098;-77
2022/10/06 04:39:10;;;;;;;41.40;19.12;;;;;;;7.25;100.00;99823.56;4422472;32;20163;-77
2022/10/06 04:41:39;;;;;;;38.53;16.87;;;;;;;7.24;100.00;99818.44;4422528;32;20123;-77
2022/10/06 04:44:07;;;;;;;35.35;15.60;;;;;;;7.25;100.00;99820.97;4423454;32;20116;-76
2022/10/06 04:46:36;;;;;;;31.95;16.35;;;;;;;7.32;100.00;99812.78;4423303;32;20147;-76
2022/10/06 04:49:11;;;;;;;27.67;13.27;;;;;;;7.43;100.00;99808.63;4421756;32;20092;-77
2022/10/06 04:51:47;;;;;;;30.08;12.02;;;;;;;7.50;100.00;99811.69;4421751;32;20082;-77
2022/10/06 04:54:15;;;;;;;23.73;11.68;;;;;;;7.54;100.00;99812.31;4421684;32;20494;-76
2022/10/06 04:56:42;;;;;;;22.45;10.50;;;;;;;7.57;100.00;99812.13;4421851;32;20181;-76
2022/10/06 04:59:10;;;;;;;20.65;9.88;;;;;;;7.57;100.00;99822.56;4422373;32;20102;-76
2022/10/06 05:01:37;;;;;;;16.02;9.20;;;;;;;7.58;100.00;99813.84;4416976;32;20456;-77
2022/10/06 05:04:05;;;;;;;24.15;10.10;;;;;;;7.56;100.00;99815.69;4420998;32;20569;-75
2022/10/06 05:06:35;;;;;;;24.27;10.60;;;;;;;7.56;100.00;99815.69;4421338;32;20590;-75
2022/10/06 05:09:13;;;;;;;28.85;10.57;;;;;;;7.55;100.00;99812.22;4418379;32;20602;-76
2022/10/06 05:11:42;;;;;;;22.52;9.82;;;;;;;7.52;100.00;99812.41;4408213;32;20124;-75
2022/10/06 05:14:13;;;;;;;23.55;10.90;;;;;;;7.54;100.00;99818.41;4421643;32;20164;-75
2022/10/06 05:16:41;;;;;;;20.40;10.63;;;;;;;7.56;100.00;99821.75;4422131;32;20664;-75
2022/10/06 05:19:10;;;;;;;21.73;9.95;;;;;;;7.60;100.00;99818.03;4418461;32;20169;-74
2022/10/06 05:21:37;;;;;;;26.37;11.55;;;;;;;7.75;100.00;99812.81;4419113;32;20133;-75
2022/10/06 05:24:05;;;;;;;26.80;11.20;;;;;;;7.79;100.00;99811.69;4424136;32;20573;-75
2022/10/06 05:26:34;;;;;;;26.42;10.95;;;;;;;7.89;100.00;99815.41;4414584;32;20186;-74
2022/10/06 05:29:02;;;;;;;23.60;11.65;;;;;;;8.00;100.00;99823.41;4407821;32;20102;-74
2022/10/06 05:31:32;;;;;;;28.27;11.82;;;;;;;8.08;100.00;99817.72;4417194;32;20479;-74
2022/10/06 05:33:59;;;;;;;23.15;11.23;;;;;;;8.21;100.00;99827.41;4421819;32;20120;-74
2022/10/06 05:36:28;;;;;;;25.17;11.50;;;;;;;8.29;100.00;99825.16;4421521;32;20478;-74
2022/10/06 05:38:56;;;;;;;25.55;11.45;;;;;;;8.37;100.00;99822.88;4422111;32;20160;-74
2022/10/06 05:41:27;;;;;;;22.20;11.73;;;;;;;8.50;100.00;99823.00;4419248;32;20093;-73
2022/10/06 05:43:55;;;;;;;20.50;10.77;;;;;;;8.60;100.00;99824.09;4422736;32;20105;-75
2022/10/06 05:46:27;;;;;;;29.10;12.23;;;;;;;8.61;100.00;99825.75;4425914;32;20128;-75
2022/10/06 05:48:57;;;;;;;33.85;13.52;;;;;;;8.64;100.00;99820.31;4420818;32;20093;-75
2022/10/06 05:51:27;;;;;;;36.80;15.52;;;;;;;8.63;100.00;99823.03;4422827;32;20093;-75
2022/10/06 05:53:58;;;;;;;39.55;21.35;;;;;;;8.74;100.00;99830.19;4406821;32;20094;-76
2022/10/06 05:56:32;;;;;;;43.47;22.15;;;;;;;8.76;100.00;99823.91;4421261;32;20085;-75
2022/10/06 05:59:00;;;;;;;36.25;17.45;;;;;;;8.70;100.00;99827.78;4414578;32;20101;-75
2022/10/06 06:01:30;;;;;;;28.45;15.45;;;;;;;8.77;100.00;99827.38;4434857;32;20170;-75
2022/10/06 06:04:02;;;;;;;30.02;15.93;;;;;;;8.83;100.00;99827.00;4417330;32;20451;-73
2022/10/06 06:06:35;;;;;;;31.58;16.92;;;;;;;8.86;100.00;99834.63;4423652;32;20090;-75
2022/10/06 06:09:11;;;;;;;41.15;18.80;;;;;;;8.89;100.00;99839.66;4420813;32;20093;-73
2022/10/06 06:11:42;;;;;;;31.87;16.48;;;;;;;8.94;100.00;99847.19;4426872;32;20455;-75
2022/10/06 06:14:15;;;;;;;29.77;15.10;;;;;;;9.09;100.00;99848.78;4417480;32;20154;-76
2022/10/06 06:16:43;;;;;;;26.50;14.07;;;;;;;9.26;100.00;99850.28;4420212;32;20094;-76
2022/10/06 06:19:11;;;;;;;33.05;14.18;;;;;;;9.36;100.00;99845.31;4420610;32;20133;-77
2022/10/06 06:21:39;;;;;;;27.45;14.15;;;;;;;9.43;100.00;99858.78;4419574;32;20142;-76
2022/10/06 06:24:07;;;;;;;25.25;13.27;;;;;;;9.46;100.00;99855.97;4418985;32;20589;-76
2022/10/06 06:26:36;;;;;;;24.50;13.60;;;;;;;9.48;100.00;99864.53;4419681;32;20130;-76
2022/10/06 06:29:05;;;;;;;25.37;12.60;;;;;;;9.59;100.00;99872.53;4418715;32;20479;-79
2022/10/06 06:31:36;;;;;;;25.23;13.57;;;;;;;9.54;100.00;99874.62;4420017;32;20133;-77
2022/10/06 06:34:05;;;;;;;29.05;14.75;;;;;;;9.61;100.00;99878.47;4422196;32;20094;-76
2022/10/06 06:36:39;;;;;;;28.95;14.02;;;;;;;9.65;100.00;99879.13;4419478;32;20482;-77
2022/10/06 06:39:09;;;;;;;23.25;14.07;;;;;;;9.67;100.00;99891.12;4420353;32;20113;-77
2022/10/06 06:41:40;;;;;;;25.42;13.85;;;;;;;9.66;100.00;99892.09;4425239;32;20143;-76
2022/10/06 06:44:10;;;;;;;28.35;14.07;;;;;;;9.80;100.00;99891.16;4421663;32;20155;-76
2022/10/06 06:46:38;;;;;;;29.00;14.73;;;;;;;9.86;100.00;99889.91;4419092;32;20093;-75
2022/10/06 06:49:06;;;;;;;27.17;13.98;;;;;;;10.06;100.00;99894.59;4418422;32;20105;-76
2022/10/06 06:51:36;;;;;;;31.00;14.90;;;;;;;10.24;100.00;99896.91;4420867;32;20117;-75
2022/10/06 06:54:03;;;;;;;33.08;14.40;;;;;;;10.37;100.00;99899.50;4420515;32;20120;-76
2022/10/06 06:56:35;;;;;;;24.40;13.70;;;;;;;10.61;100.00;99900.41;4423955;32;20475;-76
2022/10/06 06:59:09;;;;;;;22.52;13.20;;;;;;;10.83;100.00;99904.94;4420925;32;20162;-78
2022/10/06 07:01:42;;;;;;;24.67;13.13;;;;;;;10.86;100.00;99903.88;4420832;32;20155;-77
2022/10/06 07:04:12;;;;;;;28.40;14.80;;;;;;;11.07;100.00;99911.16;4420571;32;20096;-76
2022/10/06 07:06:41;;;;;;;26.90;12.93;;;;;;;11.18;100.00;99919.06;4422133;32;20105;-76
2022/10/06 07:09:09;;;;;;;26.40;13.88;;;;;;;11.26;100.00;99918.50;4423466;32;20157;-76
2022/10/06 07:11:39;;;;;;;20.60;12.60;;;;;;;11.36;100.00;99920.31;4427898;32;20441;-77
2022/10/06 07:14:11;;;;;;;30.67;13.00;;;;;;;11.60;100.00;99923.88;4418957;32;20144;-75
2022/10/06 07:25:11;;;;;;;24.50;12.48;;;;;;;12.53;100.00;99930.78;4420216;32;20392;-80
2022/10/06 07:27:42;;;;;;;20.70;12.40;;;;;;;12.57;100.00;99927.78;4430502;32;20469;-78
2022/10/06 07:30:18;;;;;;;22.15;12.60;;;;;;;12.80;100.00;99929.56;4427035;32;20109;-77
2022/10/06 07:32:49;;;;;;;20.35;11.88;;;;;;;12.88;100.00;99933.22;4424245;32;20094;-77
2022/10/06 07:35:19;;;;;;;35.42;9.90;;;;;;;13.02;100.00;99931.28;4421635;32;20104;-76
2022/10/06 07:37:48;;;;;;;18.05;9.80;;;;;;;13.20;100.00;99931.56;4424099;32;20116;-77
2022/10/06 07:40:15;;;;;;;16.67;8.77;;;;;;;13.26;100.00;99936.34;4424840;32;20160;-78
2022/10/06 07:42:50;;;;;;;21.55;9.50;;;;;;;13.45;100.00;99931.25;4424292;32;20105;-73
2022/10/06 07:45:37;;;;;;;16.95;9.23;;;;;;;13.57;100.00;99928.59;4421154;32;20098;-77
2022/10/06 07:48:06;;;;;;;17.55;10.40;;;;;;;13.75;100.00;99926.22;4421816;32;20167;-75
2022/10/06 07:50:35;;;;;;;18.17;9.20;;;;;;;14.02;100.00;99933.59;4428557;32;20159;-74
2022/10/06 07:53:07;;;;;;;17.37;9.07;;;;;;;14.26;100.00;99933.28;4406895;32;21115;-74
2022/10/06 07:55:40;;;;;;;17.77;8.50;;;;;;;14.55;100.00;99940.47;4427603;32;20090;-73
2022/10/06 07:58:17;;;;;;;15.35;9.02;;;;;;;14.77;100.00;99942.09;4422483;32;20143;-74
2022/10/06 08:00:47;;;;;;;17.52;8.48;;;;;;;14.93;100.00;99948.63;4424027;32;20156;-76
2022/10/06 08:03:18;;;;;;;17.60;8.57;;;;;;;15.21;98.82;99952.28;4432300;32;20466;-74
2022/10/06 08:05:46;;;;;;;14.50;8.38;;;;;;;15.32;96.18;99949.53;4417527;32;20180;-74
2022/10/06 08:08:14;;;;;;;15.80;8.65;;;;;;;15.55;100.00;99954.53;4420508;32;20232;-73
2022/10/06 08:10:42;;;;;;;16.48;8.32;;;;;;;15.77;99.15;99948.09;4420101;32;20159;-74
2022/10/06 08:13:09;;;;;;;12.07;9.15;;;;;;;15.79;99.45;99952.31;4426363;32;20113;-74
2022/10/06 08:15:36;;;;;;;13.32;7.90;;;;;;;15.84;95.55;99954.53;4435688;32;20128;-76
2022/10/06 08:18:03;;;;;;;12.98;8.70;;;;;;;15.94;96.94;99949.19;4429028;32;20142;-75
2022/10/06 08:20:51;;;;;;;12.00;7.95;;;;;;;16.06;97.61;99950.69;4436959;32;20117;-77
2022/10/06 08:23:18;;;;;;;15.50;8.50;;;;;;;16.13;94.78;99954.44;4421055;32;20106;-74
2022/10/06 08:25:50;;;;;;;11.07;8.25;;;;;;;16.29;96.28;99955.63;4427378;32;20098;-74
2022/10/06 08:28:19;;;;;;;10.48;6.40;;;;;;;16.32;93.21;99958.84;4419494;32;20094;-76
2022/10/06 08:30:46;;;;;;;17.98;8.23;;;;;;;16.28;92.45;99957.47;4417376;32;20097;-77
2022/10/06 08:33:13;;;;;;;14.85;8.60;;;;;;;16.16;91.04;99960.44;4421431;32;20097;-77
2022/10/06 08:35:40;;;;;;;12.18;7.70;;;;;;;16.35;92.44;99956.88;4426191;32;20183;-79
2022/10/06 08:38:08;;;;;;;13.02;7.45;;;;;;;16.54;90.37;99962.09;4427659;32;20089;-77
2022/10/06 08:40:35;;;;;;;12.10;6.80;;;;;;;16.44;89.38;99964.78;4424033;32;20176;-78
2022/10/06 08:43:02;;;;;;;10.43;7.20;;;;;;;16.48;85.97;99952.91;4420031;32;20105;-79
2022/10/06 08:45:34;;;;;;;10.70;6.28;;;;;;;16.62;86.84;99964.00;4422272;32;20852;-76
2022/10/06 08:48:19;;;;;;;11.57;6.62;;;;;;;16.59;83.15;99959.00;4407183;32;20176;-77
2022/10/06 08:50:57;;;;;;;6.87;5.15;;;;;;;16.87;84.37;99961.69;4422084;32;20132;-79
2022/10/06 08:53:45;;;;;;;7.90;5.10;;;;;;;16.96;82.70;99961.63;4408116;32;20152;-80
2022/10/06 08:56:18;;;;;;;10.02;6.20;;;;;;;16.97;79.47;99959.78;4420534;32;20459;-80
2022/10/06 08:58:53;;;;;;;14.27;6.43;;;;;;;16.96;79.94;99963.44;4411041;32;20184;-80
2022/10/06 09:01:23;;;;;;;17.15;7.30;;;;;;;17.14;79.78;99963.47;4416154;32;20120;-80
2022/10/06 09:03:53;;;;;;;10.43;6.50;;;;;;;17.12;80.44;99953.03;4419615;32;20211;-78
2022/10/06 09:06:37;;;;;;;10.57;5.90;;;;;;;17.37;81.93;99969.16;4415689;32;20144;-78
2022/10/06 09:09:35;;;;;;;9.95;5.82;;;;;;;17.24;76.75;99963.37;4415674;32;20704;-78
2022/10/06 09:12:17;;;;;;;12.48;6.40;;;;;;;17.43;73.90;99963.25;4420932;32;20462;-78
2022/10/06 09:14:55;;;;;;;9.63;5.35;;;;;;;17.52;77.35;99961.50;4406747;32;20153;-78
2022/10/06 09:17:30;;;;;;;8.50;5.80;;;;;;;17.66;73.89;99962.75;4419854;32;20470;-78
2022/10/06 09:20:04;;;;;;;8.30;4.65;;;;;;;17.85;73.13;99959.94;4421119;32;20120;-78
2022/10/06 09:22:31;;;;;;;7.25;4.95;;;;;;;17.91;72.70;99966.44;4406591;32;20123;-78
2022/10/06 09:25:14;;;;;;;8.93;4.80;;;;;;;17.85;72.54;99978.50;4420080;32;20129;-79
2022/10/06 09:27:43;;;;;;;8.43;4.57;;;;;;;18.24;73.96;99971.97;4410607;32;20094;-76
2022/10/06 09:30:11;;;;;;;5.68;3.90;;;;;;;18.00;74.09;99975.28;4405924;32;22170;-78
2022/10/06 09:32:44;;;;;;;7.97;4.12;;;;;;;18.18;70.15;99973.44;4429318;32;20146;-80
2022/10/06 09:35:18;;;;;;;8.18;4.25;;;;;;;18.51;74.38;99970.13;4421108;32;20125;-79
2022/10/06 09:37:55;;;;;;;8.45;4.10;;;;;;;18.53;70.62;99974.28;4421362;32;20094;-81
2022/10/06 09:40:32;;;;;;;6.10;4.05;;;;;;;18.40;68.48;99980.00;4421992;32;20086;-78
2022/10/06 09:43:00;;;;;;;9.18;4.30;;;;;;;18.19;71.71;99979.56;4422841;32;20175;-78
2022/10/06 09:45:28;;;;;;;10.07;5.05;;;;;;;18.05;71.81;99983.63;4424631;32;20093;-76
2022/10/06 09:48:10;;;;;;;15.10;5.78;;;;;;;17.89;72.92;99979.84;4421810;32;20116;-75
2022/10/06 09:50:39;;;;;;;9.52;5.65;;;;;;;17.94;74.06;99986.53;4422813;32;20130;-74
2022/10/06 09:53:11;;;;;;;8.95;5.57;;;;;;;17.80;75.57;99990.53;4421760;32;20101;-76
2022/10/06 09:55:38;;;;;;;11.10;5.90;;;;;;;17.89;76.20;99989.62;4417012;32;20117;-76
2022/10/06 09:58:24;;;;;;;9.77;6.03;;;;;;;17.74;77.56;99992.81;4423715;32;20098;-74
2022/10/06 10:00:55;;;;;;;12.73;6.82;;;;;;;17.59;78.29;99988.19;4421724;32;20112;-74
2022/10/06 10:03:24;;;;;;;11.82;6.78;;;;;;;17.26;79.69;99982.59;4417062;32;20436;-74
2022/10/06 10:05:55;;;;;;;11.75;6.40;;;;;;;17.30;79.89;99986.63;4409406;32;20117;-75
2022/10/06 10:08:25;;;;;;;12.98;6.80;;;;;;;17.46;79.28;99989.44;4423055;32;20089;-76
2022/10/06 10:12:23;;;;;;;10.73;7.25;;;;;;;17.41;79.19;99986.41;4416093;32;20105;-75
2022/10/06 10:13:56;;;;;;;12.80;7.65;;;;;;;17.58;80.85;99991.81;4418081;32;20171;-75
2022/10/06 10:16:25;;;;;;;10.02;6.72;;;;;;;17.53;77.80;99989.62;4418821;32;20139;-74
2022/10/06 10:18:52;;;;;;;13.65;7.25;;;;;;;17.45;79.69;99987.75;4430322;32;20126;-76
2022/10/06 10:21:28;;;;;;;11.80;6.78;;;;;;;17.46;80.74;99984.13;4425097;32;20123;-76
2022/10/06 10:23:56;;;;;;;10.48;6.57;;;;;;;17.37;79.07;99990.34;4411032;32;20105;-77
2022/10/06 10:26:53;;;;;;;10.10;5.90;;;;;;;17.40;77.32;99983.91;4408327;32;20129;-77
2022/10/06 10:29:48;;;;;;;14.60;5.75;;;;;;;17.53;76.68;99985.19;4423588;32;20880;-77
2022/10/06 10:32:15;;;;;;;9.23;6.65;;;;;;;17.65;77.43;99977.00;4424368;32;20094;-76
2022/10/06 10:35:19;;;;;;;11.57;6.85;;;;;;;17.65;77.45;99979.63;4422440;32;20126;-79
2022/10/06 10:38:03;;;;;;;9.48;5.45;;;;;;;17.71;77.32;99981.69;4405901;32;20113;-77
2022/10/06 10:40:41;;;;;;;9.43;5.57;;;;;;;17.81;75.36;99977.13;4405066;32;20475;-77
2022/10/06 10:43:13;;;;;;;8.50;5.45;;;;;;;17.83;74.16;99977.78;4414684;32;20089;-77
2022/10/06 10:45:46;;;;;;;11.63;5.85;;;;;;;17.81;73.96;99977.13;4403557;32;20106;-77
2022/10/06 10:48:30;;;;;;;9.65;4.97;;;;;;;17.77;76.18;99986.34;4405845;32;20162;-78
2022/10/06 10:51:19;;;;;;;11.93;6.03;;;;;;;17.89;73.07;99981.69;4403587;32;20102;-77
2022/10/06 10:54:08;;;;;;;10.27;5.40;;;;;;;17.74;72.97;99986.66;4405914;32;20086;-77
2022/10/06 10:56:35;;;;;;;10.00;5.18;;;;;;;17.59;75.67;99983.72;4407094;32;20459;-76
2022/10/06 10:59:20;;;;;;;7.82;5.53;;;;;;;17.50;74.17;99980.19;4419714;32;20164;-77
2022/10/06 11:01:55;;;;;;;13.18;5.50;;;;;;;17.62;74.58;99974.66;4404481;32;20119;-76
2022/10/06 11:04:22;;;;;;;9.63;5.25;;;;;;;17.77;72.21;99973.09;4404995;32;20106;-76
2022/10/06 11:06:54;;;;;;;8.35;4.50;;;;;;;18.02;72.43;99973.34;4421768;32;20169;-79
2022/10/06 11:09:46;;;;;;;10.95;4.30;;;;;;;18.41;72.72;99971.06;4408623;32;20143;-78
2022/10/06 11:12:22;;;;;;;6.20;3.30;;;;;;;18.46;68.04;99973.25;4419206;32;20109;-78
2022/10/06 11:14:54;;;;;;;10.23;3.28;;;;;;;18.47;69.73;99972.28;4408416;32;20121;-78
2022/10/06 11:17:24;;;;;;;4.72;2.83;;;;;;;18.55;67.36;99969.63;4419815;32;20093;-79
2022/10/06 11:20:10;;;;;;;4.95;2.50;;;;;;;18.78;67.45;99969.06;4418654;32;20491;-80
2022/10/06 11:22:44;;;;;;;4.93;3.08;;;;;;;18.94;65.72;99970.94;4407259;32;20516;-79
2022/10/06 11:25:21;;;;;;;6.10;3.53;;;;;;;19.15;67.23;99966.03;4407258;32;20158;-80
2022/10/06 11:28:00;;;;;;;4.72;3.50;;;;;;;19.42;65.93;99966.72;4420431;32;20120;-78
2022/10/06 11:30:29;;;;;;;6.03;3.80;;;;;;;19.62;66.43;99966.41;4407995;32;20106;-79
2022/10/06 11:33:16;;;;;;;6.10;3.80;;;;;;;19.72;65.23;99963.59;4415329;32;89332;-80
2022/10/06 11:35:45;;;;;;;7.85;4.95;;;;;;;19.41;66.94;99958.91;4405967;32;20153;-81
2022/10/06 11:38:34;;;;;;;11.30;4.90;;;;;;;19.25;69.95;99960.56;4419889;32;20094;-81
2022/10/06 11:41:01;;;;;;;11.88;5.18;;;;;;;19.28;69.15;99949.59;4422344;32;20128;-77
2022/10/06 11:43:59;;;;;;;7.28;4.62;;;;;;;19.29;68.88;99948.63;4419897;32;20093;-79
2022/10/06 11:46:36;;;;;;;10.88;5.35;;;;;;;19.36;69.97;99950.63;4401362;32;20098;-78
2022/10/06 11:49:27;;;;;;;13.30;4.85;;;;;;;19.51;68.47;99948.97;4417728;32;20109;-80
2022/10/06 11:52:06;;;;;;;8.93;4.90;;;;;;;19.49;69.83;99953.63;4419791;32;20149;-79
2022/10/06 11:54:46;;;;;;;9.52;5.47;;;;;;;19.61;68.80;99949.63;4420011;32;20471;-79